Time;durP1;ratioP1;P1;durP2;ratioP2;P2;SDS_P1;SDS_P2;PMS_P1;PMS_P2;Temp;Humidity;BMP_temperature;BMP_pressure;BME280_temperature;BME280_humidity;BME280_pressure;Samples;Min_cycle;Max_cycle;Signal;HPM_P1;HPM_P2
2023/09/03 00:00:39;;;;;;;;;11.75;11.00;;;;;-143.90;98.23;75128.81;4916105;28;102347;-76
2023/09/03 00:03:06;;;;;;;;;4.00;4.00;;;;;-143.90;97.90;75132.94;4929050;28;103334;-76
2023/09/03 00:05:33;;;;;;;;;8.50;7.50;;;;;-143.90;97.51;75118.47;4906762;28;102157;-76
2023/09/03 00:08:00;;;;;;;;;8.75;7.50;;;;;-143.90;96.62;75122.59;4916142;28;104246;-74
2023/09/03 00:10:28;;;;;;;;;10.33;9.33;;;;;-143.90;95.76;75126.75;4916119;28;102466;-75
2023/09/03 00:12:54;;;;;;;;;8.00;8.00;;;;;-143.90;95.50;75122.59;4931335;28;103993;-76
2023/09/03 00:15:25;;;;;;;;;8.50;7.75;;;;;-143.90;94.41;75130.88;4931440;28;102449;-76
2023/09/03 00:17:52;;;;;;;;;7.75;7.00;;;;;-143.90;94.42;75135.00;4932752;28;102629;-75
2023/09/03 00:20:19;;;;;;;;;6.75;6.25;;;;;-143.90;94.78;75132.94;4926930;28;102357;-76
2023/09/03 00:22:45;;;;;;;;;6.75;5.75;;;;;-143.90;94.54;75147.41;4902146;28;104196;-76
2023/09/03 00:25:12;;;;;;;;;5.50;5.00;;;;;-143.90;93.89;75139.16;4890816;28;102582;-76
2023/09/03 00:27:39;;;;;;;;;7.50;6.75;;;;;-143.90;93.58;75135.00;4893108;28;101909;-76
2023/09/03 00:30:07;;;;;;;;;7.00;7.00;;;;;-143.90;93.11;75139.16;4912026;28;103765;-76
2023/09/03 00:32:33;;;;;;;;;7.00;7.00;;;;;-143.90;92.44;75141.22;4907079;28;103217;-75
2023/09/03 00:35:00;;;;;;;;;6.00;6.00;;;;;-143.90;92.24;75143.28;4899654;28;102403;-76
2023/09/03 00:37:27;;;;;;;;;5.67;5.00;;;;;-143.90;93.07;75157.75;4906044;28;102237;-74
2023/09/03 00:39:54;;;;;;;;;1.00;1.00;;;;;-143.90;93.17;75163.94;4910105;28;102080;-75
2023/09/03 00:42:21;;;;;;;;;4.00;3.00;;;;;-143.90;93.42;75184.63;4903317;28;108880;-76
2023/09/03 00:44:47;;;;;;;;;5.00;5.00;;;;;-143.90;93.86;75180.50;4901279;28;102545;-76
2023/09/03 00:47:17;;;;;;;;;4.00;3.00;;;;;-143.90;93.85;75188.75;4905475;28;103402;-76
2023/09/03 00:49:44;;;;;;;;;3.75;3.00;;;;;-143.90;94.86;75199.09;4910501;28;101961;-74
2023/09/03 00:52:12;;;;;;;;;7.25;6.50;;;;;-143.90;94.82;75201.16;4888218;28;103579;-75
2023/09/03 00:54:39;;;;;;;;;5.25;5.25;;;;;-143.90;95.54;75203.22;4910226;28;102653;-75
2023/09/03 00:57:06;;;;;;;;;5.00;5.00;;;;;-143.90;95.33;75205.28;4903622;28;101962;-74
2023/09/03 00:59:33;;;;;;;;;4.00;4.00;;;;;-143.90;95.41;75205.28;4866277;28;103045;-75
2023/09/03 01:02:00;;;;;;;;;8.50;7.25;;;;;-143.90;94.57;75207.38;4898651;28;103691;-75
2023/09/03 01:04:27;;;;;;;;;7.00;7.00;;;;;-143.90;94.00;75209.44;4893451;28;102805;-75
2023/09/03 01:06:54;;;;;;;;;14.75;14.25;;;;;-143.90;93.27;75209.44;4893571;28;101945;-75
2023/09/03 01:09:21;;;;;;;;;18.75;18.00;;;;;-143.90;93.45;75219.78;4889517;28;102481;-75
2023/09/03 01:11:57;;;;;;;;;15.50;11.75;;;;;-143.90;93.92;75217.69;4908465;28;103533;-75
2023/09/03 01:14:31;;;;;;;;;9.50;9.50;;;;;-143.90;94.65;75217.69;4906458;28;102501;-76
2023/09/03 01:17:02;;;;;;;;;22.75;18.50;;;;;-143.90;93.96;75230.09;4907412;28;102066;-76
2023/09/03 01:19:51;;;;;;;;;15.25;13.50;;;;;-143.90;94.36;75238.38;4910208;28;102150;-76
2023/09/03 01:22:27;;;;;;;;;13.00;13.00;;;;;-143.90;95.58;75244.59;4926072;28;108552;-75
2023/09/03 01:25:26;;;;;;;;;13.00;12.00;;;;;-143.90;96.26;75256.97;4927451;28;102536;-76
2023/09/03 01:28:11;;;;;;;;;9.00;8.25;;;;;-143.90;96.76;75248.72;4866467;28;102390;-76
2023/09/03 01:30:37;;;;;;;;;7.00;5.75;;;;;-143.90;97.29;75248.72;4926017;28;102231;-75
2023/09/03 01:33:05;;;;;;;;;8.00;7.00;;;;;-143.90;97.01;75242.50;4925442;28;103223;-75
2023/09/03 01:35:33;;;;;;;;;11.75;8.00;;;;;-143.90;97.42;75250.78;4925988;28;102424;-75
2023/09/03 01:38:00;;;;;;;;;7.00;6.50;;;;;-143.90;98.29;75256.97;4930138;28;102171;-75
2023/09/03 01:40:26;;;;;;;;;7.25;6.50;;;;;-143.90;98.21;75254.91;4922899;28;102085;-75
2023/09/03 01:42:53;;;;;;;;;6.00;5.50;;;;;-143.90;98.69;75246.66;4928406;28;103407;-75
2023/09/03 01:45:23;;;;;;;;;3.25;3.25;;;;;-143.90;97.84;75238.38;4943399;28;101898;-75
2023/09/03 01:47:56;;;;;;;;;7.75;7.00;;;;;-143.90;96.42;75244.59;4928184;28;102100;-75
2023/09/03 01:50:34;;;;;;;;;6.00;6.00;;;;;-143.90;95.78;75246.66;4931130;28;102579;-75
2023/09/03 01:53:14;;;;;;;;;5.25;5.25;;;;;-143.90;95.57;75242.50;4941488;28;107833;-75
2023/09/03 01:55:44;;;;;;;;;6.00;6.00;;;;;-143.90;95.52;75236.31;4925642;28;102651;-75
2023/09/03 01:58:12;;;;;;;;;6.00;4.50;;;;;-143.90;95.60;75238.38;4929123;28;102438;-75
2023/09/03 02:00:41;;;;;;;;;2.50;2.50;;;;;-143.90;95.08;75242.50;4925036;28;102386;-75
2023/09/03 02:03:10;;;;;;;;;4.00;3.00;;;;;-143.90;95.66;75246.66;4928093;28;103795;-75
2023/09/03 02:05:36;;;;;;;;;0.33;0.00;;;;;-143.90;97.36;75248.72;4925876;28;102175;-75
2023/09/03 02:08:03;;;;;;;;;7.25;7.25;;;;;-143.90;98.44;75236.31;4921976;28;102404;-74
2023/09/03 02:10:30;;;;;;;;;7.00;7.00;;;;;-143.90;98.57;75244.59;4925075;28;102203;-76
2023/09/03 02:12:57;;;;;;;;;9.00;7.50;;;;;-143.90;98.51;75234.25;4921733;28;108094;-75
2023/09/03 02:15:24;;;;;;;;;3.00;2.75;;;;;-143.90;98.06;75225.97;4929313;28;102421;-75
2023/09/03 02:17:51;;;;;;;;;5.50;4.50;;;;;-143.90;97.69;75225.97;4926985;28;103308;-76
2023/09/03 02:20:18;;;;;;;;;6.50;6.25;;;;;-143.90;96.38;75230.09;4924663;28;102087;-75
2023/09/03 02:22:45;;;;;;;;;5.75;5.75;;;;;-143.90;95.96;75232.19;4921449;28;103970;-76
2023/09/03 02:25:11;;;;;;;;;8.00;7.00;;;;;-143.90;95.17;75240.44;4908489;28;104334;-75
2023/09/03 02:27:38;;;;;;;;;4.00;4.00;;;;;-143.90;94.77;75238.38;4928465;28;102448;-76
2023/09/03 02:30:05;;;;;;;;;4.00;3.00;;;;;-143.90;94.86;75244.59;4930657;28;102234;-75
2023/09/03 02:32:32;;;;;;;;;6.75;5.00;;;;;-143.90;96.07;75250.78;4902709;28;103971;-75
2023/09/03 02:34:59;;;;;;;;;6.75;6.00;;;;;-143.90;97.27;75250.78;4920919;28;101993;-76
2023/09/03 02:37:26;;;;;;;;;7.00;6.25;;;;;-143.90;97.48;75244.59;4916189;28;101877;-76
2023/09/03 02:39:52;;;;;;;;;6.00;6.00;;;;;-143.90;97.56;75246.66;4922874;28;104285;-76
2023/09/03 02:42:19;;;;;;;;;9.00;6.00;;;;;-143.90;97.47;75236.31;4929691;28;104025;-75
2023/09/03 02:44:46;;;;;;;;;6.50;5.75;;;;;-143.90;97.15;75238.38;4924704;28;102410;-75
2023/09/03 02:47:13;;;;;;;;;5.25;5.00;;;;;-143.90;97.01;75232.19;4926550;28;101938;-76
2023/09/03 02:49:39;;;;;;;;;4.00;3.50;;;;;-143.90;96.94;75223.91;4911876;28;102636;-76
2023/09/03 02:52:06;;;;;;;;;4.00;4.00;;;;;-143.90;96.49;75225.97;4928438;28;105406;-76
2023/09/03 02:54:33;;;;;;;;;8.75;8.00;;;;;-143.90;95.93;75215.63;4922924;28;102058;-75
2023/09/03 02:57:00;;;;;;;;;8.00;8.00;;;;;-143.90;95.73;75225.97;4927222;28;102434;-76
2023/09/03 02:59:28;;;;;;;;;7.75;6.75;;;;;-143.90;95.61;75242.50;4926373;28;102649;-75
2023/09/03 03:01:55;;;;;;;;;6.50;6.00;;;;;-143.90;95.90;75225.97;4926034;28;103093;-76
2023/09/03 03:04:22;;;;;;;;;6.25;5.00;;;;;-143.90;95.55;75230.09;4927014;28;102722;-76
2023/09/03 03:06:49;;;;;;;;;6.00;5.75;;;;;-143.90;95.61;75230.09;4926104;28;103549;-76
2023/09/03 03:09:16;;;;;;;;;8.50;8.00;;;;;-143.90;95.52;75230.09;4929945;28;102756;-75
2023/09/03 03:11:42;;;;;;;;;8.00;8.00;;;;;-143.90;96.04;75221.84;4932504;28;104156;-74
2023/09/03 03:14:09;;;;;;;;;7.75;7.25;;;;;-143.90;95.47;75225.97;4922837;28;102333;-75
2023/09/03 03:16:36;;;;;;;;;7.25;7.00;;;;;-143.90;95.56;75217.69;4924698;28;102725;-73
2023/09/03 03:19:03;;;;;;;;;8.00;8.00;;;;;-143.90;95.78;75213.56;4926595;28;102118;-74
2023/09/03 03:21:30;;;;;;;;;11.00;10.00;;;;;-143.90;95.90;75209.44;4888177;28;104528;-74
2023/09/03 03:23:57;;;;;;;;;12.75;9.75;;;;;-143.90;95.63;75217.69;4926023;28;103012;-76
2023/09/03 03:26:23;;;;;;;;;6.50;5.75;;;;;-143.90;96.05;75205.28;4930638;28;102592;-76
2023/09/03 03:28:50;;;;;;;;;6.50;5.00;;;;;-143.90;96.45;75205.28;4934605;28;102187;-74
2023/09/03 03:31:19;;;;;;;;;5.50;4.75;;;;;-143.90;96.80;75197.03;4928626;28;103785;-76
2023/09/03 03:33:47;;;;;;;;;6.25;6.25;;;;;-143.90;96.71;75197.03;4936403;28;102417;-75
2023/09/03 03:36:15;;;;;;;;;5.00;5.00;;;;;-143.90;96.75;75201.16;4928085;28;102241;-76
2023/09/03 03:38:43;;;;;;;;;6.75;6.25;;;;;-143.90;96.78;75197.03;4931105;28;102048;-76
2023/09/03 03:41:19;;;;;;;;;5.25;5.25;;;;;-143.90;97.36;75201.16;4931129;28;103971;-75
2023/09/03 03:43:48;;;;;;;;;4.50;4.50;;;;;-143.90;96.69;75180.50;4926070;28;102368;-75
2023/09/03 03:46:19;;;;;;;;;5.00;5.00;;;;;-143.90;96.78;75180.50;4934082;28;101944;-75
2023/09/03 03:48:48;;;;;;;;;7.00;6.75;;;;;-143.90;96.90;75190.81;4935221;28;102072;-76
2023/09/03 03:51:15;;;;;;;;;5.00;4.75;;;;;-143.90;96.67;75176.34;4931561;28;105154;-75
2023/09/03 03:53:42;;;;;;;;;5.75;4.00;;;;;-143.90;96.78;75170.16;4933287;28;102306;-75
2023/09/03 03:56:10;;;;;;;;;28.50;23.25;;;;;-143.90;96.03;75163.94;4929616;28;102808;-75
2023/09/03 03:58:39;;;;;;;;;14.00;12.50;;;;;-143.90;95.86;75159.81;4945521;28;102118;-76
2023/09/03 04:01:23;;;;;;;;;9.25;9.00;;;;;-143.90;97.06;75157.75;4944721;28;108626;-75
2023/09/03 04:03:51;;;;;;;;;7.75;7.25;;;;;-143.90;96.78;75161.88;4927277;28;102307;-76
2023/09/03 04:06:19;;;;;;;;;6.00;5.25;;;;;-143.90;97.18;75168.09;4926627;28;102356;-75
2023/09/03 04:08:46;;;;;;;;;6.00;5.50;;;;;-143.90;96.94;75159.81;4927389;28;102287;-74
2023/09/03 04:11:16;;;;;;;;;7.25;5.00;;;;;-143.90;97.16;75155.69;4933220;28;104461;-75
2023/09/03 04:13:43;;;;;;;;;4.75;4.25;;;;;-143.90;96.92;75161.88;4920626;28;102469;-75
2023/09/03 04:16:13;;;;;;;;;6.25;6.00;;;;;-143.90;96.84;75174.28;4942316;28;102551;-74
2023/09/03 04:18:41;;;;;;;;;10.25;9.50;;;;;-143.90;98.64;75186.69;4930617;28;102279;-75
2023/09/03 04:21:08;;;;;;;;;14.00;12.25;;;;;-143.90;99.41;75176.34;4914009;28;103974;-75
2023/09/03 04:23:35;;;;;;;;;10.25;9.00;;;;;-143.90;99.37;75184.63;4893389;28;101856;-76
2023/09/03 04:26:02;;;;;;;;;7.00;7.00;;;;;-143.90;99.37;75180.50;4901262;28;103415;-75
2023/09/03 04:28:29;;;;;;;;;6.50;6.00;;;;;-143.90;98.80;75168.09;4911537;28;102523;-75
2023/09/03 04:30:59;;;;;;;;;5.00;4.50;;;;;-143.90;97.68;75172.22;4895658;28;104836;-75
2023/09/03 04:33:26;;;;;;;;;7.50;5.25;;;;;-143.90;96.87;75168.09;4903241;28;102160;-75
2023/09/03 04:35:55;;;;;;;;;6.00;5.25;;;;;-143.90;96.38;75168.09;4911794;28;102009;-76
2023/09/03 04:38:23;;;;;;;;;5.75;4.75;;;;;-143.90;96.52;75176.34;4894929;28;102368;-75
2023/09/03 04:40:49;;;;;;;;;7.00;6.75;;;;;-143.90;96.23;75186.69;4890697;28;104002;-76
2023/09/03 04:43:17;;;;;;;;;22.75;21.50;;;;;-143.90;99.23;75178.41;4908798;28;102203;-77
2023/09/03 04:45:48;;;;;;;;;15.25;14.75;;;;;-143.90;99.83;75172.22;4900581;28;102317;-76
2023/09/03 04:48:16;;;;;;;;;17.00;15.75;;;;;-143.90;100.00;75155.69;4897790;28;101941;-75
2023/09/03 04:50:43;;;;;;;;;12.75;10.75;;;;;-143.90;100.00;75157.75;4904255;28;104643;-76
2023/09/03 04:53:13;;;;;;;;;8.75;8.00;;;;;-143.90;100.00;75126.75;4907528;28;102971;-75
2023/09/03 04:55:41;;;;;;;;;10.25;9.50;;;;;-143.90;100.00;75110.19;4906398;28;102362;-75
2023/09/03 04:58:08;;;;;;;;;9.25;9.25;;;;;-143.90;100.00;75110.19;4904410;28;104440;-77
2023/09/03 05:00:35;;;;;;;;;10.00;10.00;;;;;-143.90;100.00;75093.66;4907778;28;108298;-77
2023/09/03 05:03:04;;;;;;;;;5.25;5.00;;;;;-143.90;100.00;75099.88;4898962;28;102584;-77
2023/09/03 05:05:31;;;;;;;;;6.75;6.25;;;;;-143.90;100.00;75093.66;4902247;28;102048;-77
2023/09/03 05:07:58;;;;;;;;;6.50;6.25;;;;;-143.90;100.00;75081.25;4908059;28;104495;-77
2023/09/03 05:10:25;;;;;;;;;8.75;8.00;;;;;-143.90;100.00;75068.84;4907076;28;104191;-77
2023/09/03 05:12:52;;;;;;;;;7.50;7.50;;;;;-143.90;99.54;75058.50;4903202;28;102429;-77
2023/09/03 05:15:18;;;;;;;;;6.00;6.00;;;;;-143.90;98.94;75054.38;4900643;28;102364;-77
2023/09/03 05:17:45;;;;;;;;;6.00;6.00;;;;;-143.90;98.93;75052.31;4907844;28;101947;-77
2023/09/03 05:20:12;;;;;;;;;8.00;8.00;;;;;-143.90;98.95;75035.78;4914850;28;103675;-77
2023/09/03 05:22:38;;;;;;;;;8.50;7.25;;;;;-143.90;98.97;75025.44;4930310;28;102757;-74
2023/09/03 05:25:06;;;;;;;;;8.50;7.00;;;;;-143.90;98.22;75035.78;4925829;28;103583;-76
2023/09/03 05:27:33;;;;;;;;;6.67;5.33;;;;;-143.90;98.03;75052.31;4927399;28;102205;-76
2023/09/03 05:30:03;;;;;;;;;8.25;7.00;;;;;-143.90;98.26;75048.19;4920515;28;103187;-76
2023/09/03 05:32:30;;;;;;;;;12.50;11.75;;;;;-143.90;97.71;75048.19;4933694;28;102247;-76
2023/09/03 05:34:57;;;;;;;;;10.00;9.00;;;;;-143.90;98.12;75035.78;4929572;28;102020;-76
2023/09/03 05:37:23;;;;;;;;;7.33;7.00;;;;;-143.90;98.17;75052.31;4927859;28;102283;-75
2023/09/03 05:39:51;;;;;;;;;8.33;7.33;;;;;-143.90;98.50;75037.84;4925577;28;104355;-75
2023/09/03 05:42:18;;;;;;;;;7.67;7.67;;;;;-143.90;98.25;75044.03;4922575;28;103631;-75
2023/09/03 05:44:48;;;;;;;;;6.00;6.00;;;;;-143.90;98.51;75021.31;4925463;28;101982;-75
2023/09/03 05:47:18;;;;;;;;;7.33;7.33;;;;;-143.90;97.81;75019.22;4909133;28;103366;-75
2023/09/03 05:49:46;;;;;;;;;10.25;9.25;;;;;-143.90;97.55;75041.97;4921449;28;104015;-75
2023/09/03 05:52:13;;;;;;;;;7.67;7.33;;;;;-143.90;97.43;75029.56;4912747;28;102005;-75
2023/09/03 05:54:39;;;;;;;;;5.00;5.00;;;;;-143.90;97.86;75015.09;4926816;28;102333;-75
2023/09/03 05:57:06;;;;;;;;;4.00;4.00;;;;;-143.90;97.16;75023.38;4927582;28;103065;-76
2023/09/03 05:59:33;;;;;;;;;7.67;7.00;;;;;-143.90;97.25;75010.97;4922079;28;104137;-76
2023/09/03 06:01:59;;;;;;;;;6.33;6.00;;;;;-143.90;97.62;75010.97;4923940;28;102809;-76
2023/09/03 06:04:26;;;;;;;;;9.33;8.00;;;;;-143.90;97.93;75010.97;4930353;28;102327;-77
2023/09/03 06:06:53;;;;;;;;;14.75;12.25;;;;;-143.90;98.47;75021.31;4933605;28;102450;-77
2023/09/03 06:09:19;;;;;;;;;10.00;9.50;;;;;-143.90;98.98;75019.22;4930961;28;104085;-77
2023/09/03 06:11:47;;;;;;;;;9.00;8.00;;;;;-143.90;99.58;75027.50;4904420;28;103190;-78
2023/09/03 06:14:14;;;;;;;;;6.67;6.00;;;;;-143.90;100.00;75015.09;4926548;28;102410;-76
2023/09/03 06:16:40;;;;;;;;;6.00;5.33;;;;;-143.90;100.00;74998.56;4939128;28;104417;-73
2023/09/03 06:19:07;;;;;;;;;11.67;9.00;;;;;-143.90;99.89;74988.22;4929038;28;103187;-77
2023/09/03 06:21:35;;;;;;;;;9.25;8.50;;;;;-143.90;99.25;74973.75;4907764;28;102316;-76
2023/09/03 06:24:01;;;;;;;;;16.00;13.75;;;;;-143.90;98.51;74971.69;4885489;28;102003;-77
2023/09/03 06:26:28;;;;;;;;;16.25;14.50;;;;;-143.90;97.87;74982.03;4905153;28;102966;-77
2023/09/03 06:28:55;;;;;;;;;10.00;9.67;;;;;-143.90;98.03;74977.88;4914335;28;103514;-75
2023/09/03 06:31:21;;;;;;;;;8.00;7.50;;;;;-143.90;98.63;74965.50;4907327;28;104286;-76
2023/09/03 06:33:48;;;;;;;;;8.00;6.67;;;;;-143.90;98.51;74955.16;4910341;28;102864;-77
2023/09/03 06:36:15;;;;;;;;;7.00;7.00;;;;;-143.90;97.83;74948.94;4906942;28;102682;-76
2023/09/03 06:38:44;;;;;;;;;8.00;6.00;;;;;-143.90;98.20;74917.94;4912491;28;104212;-77
2023/09/03 06:41:12;;;;;;;;;10.67;9.00;;;;;-143.90;97.15;74899.34;4902124;28;102523;-77
2023/09/03 06:43:38;;;;;;;;;10.00;10.00;;;;;-143.90;96.06;74876.59;4897034;28;101937;-77
2023/09/03 06:46:05;;;;;;;;;8.00;6.00;;;;;-143.90;95.73;74855.91;4912855;28;103618;-77
2023/09/03 06:48:32;;;;;;;;;9.67;9.00;;;;;-143.90;94.61;74837.31;4908726;28;104777;-77
2023/09/03 06:50:59;;;;;;;;;10.00;9.67;;;;;-143.90;93.08;74835.25;4909552;28;101970;-76
2023/09/03 06:53:25;;;;;;;;;11.00;10.00;;;;;-143.90;94.40;74818.72;4906438;28;104013;-75
2023/09/03 06:55:52;;;;;;;;;7.33;7.33;;;;;-143.90;94.72;74804.25;4907076;28;102249;-75
2023/09/03 06:58:19;;;;;;;;;12.67;10.00;;;;;-143.90;92.53;74804.25;4911623;28;103210;-76
2023/09/03 07:00:46;;;;;;;;;15.00;13.75;;;;;-143.90;91.11;74816.66;4915247;28;103706;-76
2023/09/03 07:03:17;;;;;;;;;17.33;16.67;;;;;-143.90;90.43;74839.38;4905744;28;102164;-75
2023/09/03 07:05:43;;;;;;;;;17.67;16.00;;;;;-143.90;91.57;74833.19;4908625;28;102458;-77
2023/09/03 07:08:10;;;;;;;;;11.33;11.00;;;;;-143.90;91.68;74824.91;4907077;28;112668;-77
2023/09/03 07:10:37;;;;;;;;;15.67;12.00;;;;;-143.90;91.58;74829.03;4907578;28;102035;-75
2023/09/03 07:13:03;;;;;;;;;8.33;8.33;;;;;-143.90;90.99;74829.03;4910681;28;101979;-76
2023/09/03 07:15:30;;;;;;;;;11.00;10.33;;;;;-143.90;90.71;74824.91;4899831;28;102580;-76
2023/09/03 07:17:57;;;;;;;;;9.33;9.33;;;;;-143.90;90.64;74816.66;4905382;28;104174;-76
2023/09/03 07:20:23;;;;;;;;;10.00;10.00;;;;;-143.90;91.23;74793.91;4919845;28;103674;-75
2023/09/03 07:22:50;;;;;;;;;10.00;8.33;;;;;-143.90;88.53;74802.16;4941077;28;102648;-76
2023/09/03 07:25:17;;;;;;;;;8.00;7.00;;;;;-143.90;90.50;74785.63;4932697;28;102046;-76
2023/09/03 07:27:44;;;;;;;;;7.67;7.67;;;;;-143.90;89.40;74775.31;4930215;28;103976;-76
2023/09/03 07:30:11;;;;;;;;;9.50;9.00;;;;;-143.90;86.83;74773.22;4921561;28;102353;-76
2023/09/03 07:32:38;;;;;;;;;7.50;7.50;;;;;-143.90;88.79;74783.56;4926198;28;103618;-76
2023/09/03 07:35:07;;;;;;;;;8.00;7.00;;;;;-143.90;86.76;74771.16;4931663;28;102052;-77
2023/09/03 07:37:34;;;;;;;;;6.33;5.00;;;;;-143.90;83.69;74758.75;4930929;28;104856;-75
2023/09/03 07:40:01;;;;;;;;;7.00;7.00;;;;;-143.90;85.86;74758.75;4933546;28;102331;-75
2023/09/03 07:42:28;;;;;;;;;15.00;13.33;;;;;-143.90;84.02;74762.91;4925302;28;102463;-76
2023/09/03 07:44:54;;;;;;;;;14.00;11.33;;;;;-143.90;84.93;74767.03;4935521;28;103401;-75
2023/09/03 07:47:21;;;;;;;;;6.33;6.33;;;;;-143.90;86.15;74758.75;4929831;28;103751;-76
2023/09/03 07:49:48;;;;;;;;;8.33;7.33;;;;;-143.90;84.88;74750.50;4925866;28;102260;-75
2023/09/03 07:52:14;;;;;;;;;7.00;7.00;;;;;-143.90;85.55;74736.03;4947944;28;102229;-75
2023/09/03 07:54:41;;;;;;;;;10.00;10.00;;;;;-143.90;84.66;74760.81;4935964;28;102426;-76
2023/09/03 07:57:08;;;;;;;;;10.00;9.00;;;;;-143.90;85.04;74742.22;4935655;28;104213;-75
2023/09/03 07:59:35;;;;;;;;;8.00;7.00;;;;;-143.90;84.87;74725.69;4937712;28;103315;-76
2023/09/03 08:02:02;;;;;;;;;10.00;9.67;;;;;-143.90;81.63;74717.41;4938481;28;101995;-75
2023/09/03 08:04:29;;;;;;;;;8.00;7.67;;;;;-143.90;81.47;74721.56;4929871;28;102049;-75
2023/09/03 08:06:56;;;;;;;;;9.00;7.00;;;;;-143.90;82.15;74711.22;4928677;28;104117;-76
2023/09/03 08:09:24;;;;;;;;;10.00;10.00;;;;;-143.90;81.34;74729.81;4931005;28;101900;-74
2023/09/03 08:11:51;;;;;;;;;10.67;10.00;;;;;-143.90;83.26;74736.03;4940047;28;102364;-76
2023/09/03 08:14:18;;;;;;;;;11.00;10.00;;;;;-143.90;79.39;74736.03;4949645;28;102115;-75
2023/09/03 08:16:44;;;;;;;;;8.00;8.00;;;;;-143.90;79.82;74721.56;4933766;28;102932;-75
2023/09/03 08:19:11;;;;;;;;;8.00;7.00;;;;;-143.90;79.15;74713.28;4936400;28;103536;-75
2023/09/03 08:21:39;;;;;;;;;8.33;7.33;;;;;-143.90;76.91;74738.09;4940225;28;102099;-75
2023/09/03 08:24:06;;;;;;;;;10.00;9.00;;;;;-143.90;83.20;74746.34;4940906;28;102310;-75
2023/09/03 08:26:32;;;;;;;;;6.00;6.00;;;;;-143.90;81.20;74736.03;4936477;28;103904;-74
2023/09/03 08:28:59;;;;;;;;;8.00;7.00;;;;;-143.90;81.11;74715.34;4936682;28;102040;-74
2023/09/03 08:31:26;;;;;;;;;8.00;8.00;;;;;-143.90;79.04;74702.94;4934781;28;102029;-76
2023/09/03 08:33:53;;;;;;;;;10.33;9.67;;;;;-143.90;79.84;74671.94;4940567;28;102153;-74
2023/09/03 08:36:22;;;;;;;;;10.00;10.00;;;;;-143.90;77.58;74665.75;4932226;28;104447;-75
2023/09/03 08:38:48;;;;;;;;;8.00;8.00;;;;;-143.90;77.73;74665.75;4948722;28;102313;-75
2023/09/03 08:41:18;;;;;;;;;8.00;8.00;;;;;-143.90;79.37;74655.41;4936360;28;101963;-76
2023/09/03 08:43:48;;;;;;;;;7.00;6.00;;;;;-143.90;76.86;74655.41;4910507;28;101945;-75
2023/09/03 08:46:17;;;;;;;;;6.00;6.00;;;;;-143.90;75.67;74659.53;4938134;28;108667;-76
2023/09/03 08:48:44;;;;;;;;;11.00;10.00;;;;;-143.90;79.18;74692.63;4946140;28;102438;-75
2023/09/03 08:51:15;;;;;;;;;9.67;8.67;;;;;-143.90;78.99;74682.28;4933414;28;102434;-75
2023/09/03 08:53:43;;;;;;;;;7.00;7.00;;;;;-143.90;78.68;74667.81;4937751;28;102331;-75
2023/09/03 08:56:10;;;;;;;;;5.67;5.67;;;;;-143.90;78.16;74649.19;4941281;28;104344;-74
2023/09/03 08:58:38;;;;;;;;;5.33;5.00;;;;;-143.90;76.56;74636.81;4944567;28;103107;-75
2023/09/03 09:01:06;;;;;;;;;7.00;6.00;;;;;-143.90;78.26;74630.59;4929301;28;102528;-77
2023/09/03 09:03:34;;;;;;;;;6.00;6.00;;;;;-143.90;77.75;74614.06;4944489;28;103830;-75
2023/09/03 09:06:03;;;;;;;;;5.00;5.00;;;;;-143.90;77.15;74576.84;4935062;28;104175;-77
2023/09/03 09:08:29;;;;;;;;;8.67;8.00;;;;;-143.90;76.20;74581.00;4934896;28;103826;-77
2023/09/03 09:11:01;;;;;;;;;7.33;7.33;;;;;-143.90;75.58;74601.66;4923130;28;102156;-75
2023/09/03 09:13:28;;;;;;;;;11.67;11.67;;;;;-143.90;74.68;74609.94;4937959;28;101949;-75
2023/09/03 09:15:55;;;;;;;;;12.33;12.00;;;;;-143.90;71.83;74634.72;4937030;28;103068;-78
2023/09/03 09:18:21;;;;;;;;;9.00;9.00;;;;;-143.90;74.38;74622.34;4955046;28;102166;-76
2023/09/03 09:20:50;;;;;;;;;9.67;9.00;;;;;-143.90;73.84;74605.78;4934771;28;102011;-75
2023/09/03 09:23:21;;;;;;;;;6.00;6.00;;;;;-143.90;73.55;74609.94;4936108;28;102062;-74
2023/09/03 09:25:50;;;;;;;;;12.67;11.00;;;;;-143.90;75.39;74634.72;4922680;28;104161;-76
2023/09/03 09:28:16;;;;;;;;;13.00;12.67;;;;;-143.90;74.84;74640.94;4931789;28;102279;-77
2023/09/03 09:30:56;;;;;;;;;11.00;11.00;;;;;-143.90;72.89;74626.47;4944106;28;101981;-76
2023/09/03 09:33:23;;;;;;;;;6.00;5.67;;;;;-143.90;74.01;74597.53;4931588;28;103623;-74
2023/09/03 09:35:50;;;;;;;;;9.67;9.00;;;;;-143.90;72.24;74597.53;4937217;28;104526;-77
2023/09/03 09:38:18;;;;;;;;;12.33;11.67;;;;;-143.90;72.87;74570.66;4940701;28;101947;-76
2023/09/03 09:40:45;;;;;;;;;9.00;8.00;;;;;-143.90;73.75;74560.31;4940183;28;102683;-78
2023/09/03 09:43:11;;;;;;;;;7.67;7.67;;;;;-143.90;72.38;74564.44;4941255;28;102082;-76
2023/09/03 09:45:50;;;;;;;;;8.00;8.00;;;;;-143.90;71.65;74576.84;4931956;28;103202;-76
2023/09/03 09:48:17;;;;;;;;;9.00;8.33;;;;;-143.90;71.48;74591.31;4938202;28;101913;-76
2023/09/03 09:50:47;;;;;;;;;10.00;9.00;;;;;-143.90;73.37;74612.00;4935680;28;103360;-79
2023/09/03 09:53:22;;;;;;;;;10.00;10.00;;;;;-143.90;74.43;74599.59;4927919;28;102220;-78
2023/09/03 09:56:12;;;;;;;;;8.00;7.67;;;;;-143.90;72.88;74589.25;4931696;28;109705;-77
2023/09/03 09:58:41;;;;;;;;;11.33;11.33;;;;;-143.90;71.79;74568.59;4940619;28;101876;-78
2023/09/03 10:01:08;;;;;;;;;10.00;10.00;;;;;-143.90;72.09;74552.03;4940429;28;102086;-76
2023/09/03 10:03:46;;;;;;;;;8.00;8.00;;;;;-143.90;68.59;74531.38;4940621;28;103301;-78
2023/09/03 10:06:14;;;;;;;;;11.00;10.67;;;;;-143.90;68.72;74506.56;4939756;28;107528;-76
2023/09/03 10:08:42;;;;;;;;;8.67;8.67;;;;;-143.90;66.53;74494.16;4926671;28;102591;-76
2023/09/03 10:11:09;;;;;;;;;7.67;7.67;;;;;-143.90;68.35;74483.84;4931684;28;102724;-78
2023/09/03 10:13:39;;;;;;;;;10.33;10.33;;;;;-143.90;65.05;74485.91;4937180;28;105227;-77
2023/09/03 10:16:09;;;;;;;;;6.00;6.00;;;;;-143.90;67.28;74516.91;4929209;28;103271;-78
2023/09/03 10:18:47;;;;;;;;;9.00;9.00;;;;;-143.90;68.67;74543.78;4931950;28;102033;-77
2023/09/03 10:21:20;;;;;;;;;9.67;8.67;;;;;-143.90;69.11;74552.03;4932103;28;103289;-77
2023/09/03 10:23:56;;;;;;;;;6.33;5.67;;;;;-143.90;67.87;74556.19;4927752;28;102300;-76
2023/09/03 10:26:33;;;;;;;;;5.33;5.33;;;;;-143.90;68.50;74537.56;4933557;28;103669;-78
2023/09/03 10:29:04;;;;;;;;;8.00;6.67;;;;;-143.90;66.92;74510.72;4931817;28;102480;-76
2023/09/03 10:31:33;;;;;;;;;5.33;5.00;;;;;-143.90;67.10;74483.84;4926133;28;105408;-76
2023/09/03 10:34:00;;;;;;;;;9.67;8.67;;;;;-143.90;63.77;74463.16;4924815;28;102482;-76
2023/09/03 10:36:27;;;;;;;;;10.00;8.00;;;;;-143.90;65.70;74469.38;4920276;28;104522;-77
2023/09/03 10:38:58;;;;;;;;;4.67;4.67;;;;;-143.90;63.59;74473.50;4930852;28;102829;-77
2023/09/03 10:41:25;;;;;;;;;4.00;4.00;;;;;-143.90;61.54;74490.03;4929193;28;102027;-77
2023/09/03 10:43:54;;;;;;;;;5.33;4.67;;;;;-143.90;61.77;74502.44;4929894;28;102161;-77
2023/09/03 10:46:25;;;;;;;;;2.67;2.67;;;;;-143.90;64.26;74498.31;4928093;28;103970;-77
2023/09/03 10:48:53;;;;;;;;;3.00;3.00;;;;;-143.90;64.07;74473.50;4923374;28;102390;-77
2023/09/03 10:51:31;;;;;;;;;4.00;3.67;;;;;-143.90;64.00;74463.16;4924300;28;102922;-76
2023/09/03 10:54:15;;;;;;;;;5.00;4.33;;;;;-143.90;61.82;74440.44;4922631;28;102827;-77
2023/09/03 10:57:04;;;;;;;;;4.33;4.33;;;;;-143.90;61.94;74417.69;4921461;28;108660;-75
2023/09/03 11:00:00;;;;;;;;;5.67;5.00;;;;;-143.90;61.29;74403.22;4935603;28;102372;-77
2023/09/03 11:02:28;;;;;;;;;5.00;4.00;;;;;-143.90;61.42;74415.63;4922062;28;102313;-75
2023/09/03 11:05:21;;;;;;;;;4.67;4.67;;;;;-143.90;57.58;74438.38;4927799;28;102498;-75
2023/09/03 11:08:09;;;;;;;;;4.00;4.00;;;;;-143.90;58.16;74454.91;4888875;28;110103;-75
2023/09/03 11:10:36;;;;;;;;;4.67;4.67;;;;;-143.90;59.84;74477.63;4925504;28;105334;-76